METAR Data
IDs: Format: Raw Decoded Include TAF

Data at: 0650 UTC 03 Aug 2021

LPPT 030630Z 33012KT 9999 FEW010 17/14 Q1017